Aérodrome :
LOGIN :

S'inscrire | Disclaimer

   EN    FR    IT 

 










Légende :    VFR   VFR Marginal   IFR   IFR Intensif   IFR Très Intensif
Visi : 
Plafond : 
>= 8 km
>= 3000ft
5 à 8 km
1000 à 3000 ft
1500m à 5 km
500 à 1000 ft
800 à 1500m
200 à 500 ft
< 800m
< 200 ft
Symboles :   Orages  Brouillard  Fortes neiges  Fortes précipitations  Vent > 20 kt
SIGMETs :   Divers  Orages  Givrage  Turbulence  Onde Orograph.  Cendres Volcan.







- Altitude de l'aérodrome : 36 ft
- Code IATA : GJL


DAAV - Jijel Ferhat Abbas

DERNIER METAR :
  • 201400Z 28006KT 9999 SCT020TCU FEW026CB SCT200 27/21 Q1017

METARs EXPIRÉS :
  • 201300Z 31006KT 9999 SCT020TCU FEW026CB SCT200 26/21 Q1017
  • 201200Z 26003KT 9999 SCT020TCU FEW026CB SCT200 26/21 Q1018

TAF TAF DAAV
Valide du 20 à 12h jusqu'au 21 à 12h UTC


201100Z 2012/2112 34014KT 9999 FEW026TCU SCT033
TEMPO 2012/2018 4000 TSRA SCT020CB
BECMG 2020/2022 20008KT
TEMPO 2020/2108 2000 -RA BR BKN008
Pas de NOTAMs connus pour ce terrain.
1 SIGMET publié pour la FIR Alger (DAAA) :
 
Orages noyés dans la masse
DAAA SIGMET 4 VALID 201300/201600 DAMM
DAAA ALGER FIR EMBD TS OBS E OF LINE N3419 E00619 - N3619 E00300 - N3801 E00519 - TOP FL380 MOV E 15KT NC=



MET'MAP, la Météo Aéronautique d'un coup d'oeil ! - Copyright ORBIFLY Décembre 2007 - Disclaimer

ORBIFLY MET'MAP TEAM :

Programmation & Développement : Alexandra Zaïnal
Conception & Développement : Baudouin d'Aumeries
Co-Programmation & Développement : Marc-Olivier Méhu
Soutien technique & logistique : Manuel Goepfert

Contact : metmap@orbifly.com




SOURCES & CREDITS :

   NOAA